< < Back
Terminal Aerodrome Forecast


Current Version              Previous Versions:   1  2  3  4  5  6  7  8  9  

Terminal Aerodrome Forecast

292
FTUS42 KTAE 222200 AAB
TAFTLH
TAF AMD
KTLH 222232Z 2223/2318 22011KT P6SM SCT050 SCT110
     FM222300 24004KT P6SM FEW250=

Latest METAR

212
SAUS80 KWBC 230500 RRC
MTRTLH
METAR KTLH 230453Z AUTO 00000KT 10SM CLR 27/22 A3000 RMK AO2 SLP159
T02670222 403780233 $


USA.gov is the U.S. government's official web portal to all federal, state and local government web resources and services.